sensor_id;sensor_type;location;lat;lon;timestamp;pressure;altitude;pressure_sealevel;temperature;humidity
5053;BME280;2545;50.892;5.740;2023-09-07T00:00:58;55921.91;;;-142.21;80.37
5053;BME280;2545;50.892;5.740;2023-09-07T00:03:24;55933.66;;;-142.21;81.05
5053;BME280;2545;50.892;5.740;2023-09-07T00:05:50;55914.06;;;-142.21;81.67
5053;BME280;2545;50.892;5.740;2023-09-07T00:08:15;55937.56;;;-142.21;81.87
5053;BME280;2545;50.892;5.740;2023-09-07T00:10:40;55916.00;;;-142.21;82.11
5053;BME280;2545;50.892;5.740;2023-09-07T00:13:06;55927.78;;;-142.21;82.54
5053;BME280;2545;50.892;5.740;2023-09-07T00:15:37;55921.91;;;-142.21;82.67
5053;BME280;2545;50.892;5.740;2023-09-07T00:18:03;55914.06;;;-142.21;83.10
5053;BME280;2545;50.892;5.740;2023-09-07T00:20:28;55912.09;;;-142.21;82.48
5053;BME280;2545;50.892;5.740;2023-09-07T00:22:54;55886.59;;;-142.21;81.62
5053;BME280;2545;50.892;5.740;2023-09-07T00:25:19;55917.97;;;-142.21;81.40
5053;BME280;2545;50.892;5.740;2023-09-07T00:27:45;55916.00;;;-142.21;81.08
5053;BME280;2545;50.892;5.740;2023-09-07T00:30:11;55890.53;;;-142.21;79.93
5053;BME280;2545;50.892;5.740;2023-09-07T00:32:37;55886.59;;;-142.21;79.64
5053;BME280;2545;50.892;5.740;2023-09-07T00:35:03;55927.78;;;-142.21;79.56
5053;BME280;2545;50.892;5.740;2023-09-07T00:37:29;55896.41;;;-142.21;80.09
5053;BME280;2545;50.892;5.740;2023-09-07T00:39:54;55906.22;;;-142.21;80.28
5053;BME280;2545;50.892;5.740;2023-09-07T00:42:19;55888.56;;;-142.21;80.46
5053;BME280;2545;50.892;5.740;2023-09-07T00:44:45;55910.13;;;-142.21;80.62
5053;BME280;2545;50.892;5.740;2023-09-07T00:47:10;55935.63;;;-142.21;80.37
5053;BME280;2545;50.892;5.740;2023-09-07T00:49:37;55890.53;;;-142.21;80.60
5053;BME280;2545;50.892;5.740;2023-09-07T00:52:04;55955.22;;;-142.21;81.06
5053;BME280;2545;50.892;5.740;2023-09-07T00:54:30;55900.31;;;-142.21;82.38
5053;BME280;2545;50.892;5.740;2023-09-07T00:56:55;55896.41;;;-142.21;81.62
5053;BME280;2545;50.892;5.740;2023-09-07T00:59:21;55917.97;;;-142.21;81.85
5053;BME280;2545;50.892;5.740;2023-09-07T01:01:47;55896.41;;;-142.21;81.44
5053;BME280;2545;50.892;5.740;2023-09-07T01:04:14;55904.25;;;-142.21;81.05
5053;BME280;2545;50.892;5.740;2023-09-07T01:06:47;55921.91;;;-142.21;81.72
5053;BME280;2545;50.892;5.740;2023-09-07T01:09:22;55906.22;;;-142.21;82.42
5053;BME280;2545;50.892;5.740;2023-09-07T01:11:48;55923.84;;;-142.21;82.75
5053;BME280;2545;50.892;5.740;2023-09-07T01:14:15;55919.94;;;-142.21;82.93
5053;BME280;2545;50.892;5.740;2023-09-07T01:16:40;55902.28;;;-142.21;83.11
5053;BME280;2545;50.892;5.740;2023-09-07T01:19:06;55896.41;;;-142.21;83.54
5053;BME280;2545;50.892;5.740;2023-09-07T01:21:37;55916.00;;;-142.21;84.07
5053;BME280;2545;50.892;5.740;2023-09-07T01:24:04;55900.31;;;-142.21;84.08
5053;BME280;2545;50.892;5.740;2023-09-07T01:26:31;55884.63;;;-142.21;84.51
5053;BME280;2545;50.892;5.740;2023-09-07T01:28:57;55931.69;;;-142.21;85.00
5053;BME280;2545;50.892;5.740;2023-09-07T01:31:22;55914.06;;;-142.21;85.71
5053;BME280;2545;50.892;5.740;2023-09-07T01:33:47;55898.38;;;-142.21;85.92
5053;BME280;2545;50.892;5.740;2023-09-07T01:36:13;55894.44;;;-142.21;85.30
5053;BME280;2545;50.892;5.740;2023-09-07T01:38:38;55906.22;;;-142.21;85.20
5053;BME280;2545;50.892;5.740;2023-09-07T01:41:03;55963.06;;;-142.21;84.97
5053;BME280;2545;50.892;5.740;2023-09-07T01:43:29;55914.06;;;-142.21;84.64
5053;BME280;2545;50.892;5.740;2023-09-07T01:45:54;55912.09;;;-142.21;85.12
5053;BME280;2545;50.892;5.740;2023-09-07T01:48:20;55923.84;;;-142.21;84.60
5053;BME280;2545;50.892;5.740;2023-09-07T01:50:45;55921.91;;;-142.21;85.23
5053;BME280;2545;50.892;5.740;2023-09-07T01:53:10;55919.94;;;-142.21;85.59
5053;BME280;2545;50.892;5.740;2023-09-07T01:55:35;55908.16;;;-142.21;85.47
5053;BME280;2545;50.892;5.740;2023-09-07T01:58:01;55908.16;;;-142.21;85.13
5053;BME280;2545;50.892;5.740;2023-09-07T02:00:26;55939.53;;;-142.21;85.17
5053;BME280;2545;50.892;5.740;2023-09-07T02:02:52;55923.84;;;-142.21;85.51
5053;BME280;2545;50.892;5.740;2023-09-07T02:05:17;55931.69;;;-142.21;85.88
5053;BME280;2545;50.892;5.740;2023-09-07T02:07:43;55925.81;;;-142.21;86.43
5053;BME280;2545;50.892;5.740;2023-09-07T02:10:09;55959.16;;;-142.21;86.49
5053;BME280;2545;50.892;5.740;2023-09-07T02:12:34;55912.09;;;-142.21;88.13
5053;BME280;2545;50.892;5.740;2023-09-07T02:15:01;55957.19;;;-142.21;89.08
5053;BME280;2545;50.892;5.740;2023-09-07T02:17:28;55921.91;;;-142.21;90.95
5053;BME280;2545;50.892;5.740;2023-09-07T02:19:53;55943.47;;;-142.21;92.84
5053;BME280;2545;50.892;5.740;2023-09-07T02:22:18;55919.94;;;-142.21;94.16
5053;BME280;2545;50.892;5.740;2023-09-07T02:24:44;55916.00;;;-142.21;95.40
5053;BME280;2545;50.892;5.740;2023-09-07T02:27:09;55927.78;;;-142.21;97.21
5053;BME280;2545;50.892;5.740;2023-09-07T02:29:34;55943.47;;;-142.21;98.09
5053;BME280;2545;50.892;5.740;2023-09-07T02:32:00;55904.25;;;-142.21;97.93
5053;BME280;2545;50.892;5.740;2023-09-07T02:34:25;55921.91;;;-142.21;97.55
5053;BME280;2545;50.892;5.740;2023-09-07T02:36:50;55912.09;;;-142.21;96.95
5053;BME280;2545;50.892;5.740;2023-09-07T02:39:16;55912.09;;;-142.21;95.04
5053;BME280;2545;50.892;5.740;2023-09-07T02:41:42;55917.97;;;-142.21;93.48
5053;BME280;2545;50.892;5.740;2023-09-07T02:44:08;55914.06;;;-142.21;93.02
5053;BME280;2545;50.892;5.740;2023-09-07T02:46:33;55912.09;;;-142.21;92.62
5053;BME280;2545;50.892;5.740;2023-09-07T02:48:58;55898.38;;;-142.21;92.66
5053;BME280;2545;50.892;5.740;2023-09-07T02:51:24;55916.00;;;-142.21;92.98
5053;BME280;2545;50.892;5.740;2023-09-07T02:53:50;55914.06;;;-142.21;93.75
5053;BME280;2545;50.892;5.740;2023-09-07T02:56:16;55894.44;;;-142.21;95.21
5053;BME280;2545;50.892;5.740;2023-09-07T02:58:41;55976.78;;;-142.21;95.55
5053;BME280;2545;50.892;5.740;2023-09-07T03:01:07;55927.78;;;-142.21;95.44
5053;BME280;2545;50.892;5.740;2023-09-07T03:03:35;55919.94;;;-142.21;94.44
5053;BME280;2545;50.892;5.740;2023-09-07T03:06:11;55929.75;;;-142.21;93.38
5053;BME280;2545;50.892;5.740;2023-09-07T03:08:39;55904.25;;;-142.21;92.41
5053;BME280;2545;50.892;5.740;2023-09-07T03:11:08;55921.91;;;-142.21;92.41
5053;BME280;2545;50.892;5.740;2023-09-07T03:13:33;55916.00;;;-142.21;92.00
5053;BME280;2545;50.892;5.740;2023-09-07T03:15:59;55933.66;;;-142.21;92.13
5053;BME280;2545;50.892;5.740;2023-09-07T03:18:25;55919.94;;;-142.21;91.84
5053;BME280;2545;50.892;5.740;2023-09-07T03:20:52;55943.47;;;-142.21;93.00
5053;BME280;2545;50.892;5.740;2023-09-07T03:23:18;55957.19;;;-142.21;93.98
5053;BME280;2545;50.892;5.740;2023-09-07T03:25:44;55961.09;;;-142.21;94.80
5053;BME280;2545;50.892;5.740;2023-09-07T03:28:09;55908.16;;;-142.21;94.83
5053;BME280;2545;50.892;5.740;2023-09-07T03:30:34;55888.56;;;-142.21;94.99
5053;BME280;2545;50.892;5.740;2023-09-07T03:33:00;55939.53;;;-142.21;95.13
5053;BME280;2545;50.892;5.740;2023-09-07T03:35:25;55943.47;;;-142.21;95.45
5053;BME280;2545;50.892;5.740;2023-09-07T03:37:51;55931.69;;;-142.21;95.56
5053;BME280;2545;50.892;5.740;2023-09-07T03:40:16;55917.97;;;-142.21;95.29
5053;BME280;2545;50.892;5.740;2023-09-07T03:42:42;55955.22;;;-142.21;95.59
5053;BME280;2545;50.892;5.740;2023-09-07T03:45:09;55935.63;;;-142.21;95.34
5053;BME280;2545;50.892;5.740;2023-09-07T03:47:34;55949.34;;;-142.21;94.34
5053;BME280;2545;50.892;5.740;2023-09-07T03:49:59;55937.56;;;-142.21;94.46
5053;BME280;2545;50.892;5.740;2023-09-07T03:52:26;55912.09;;;-142.21;94.63
5053;BME280;2545;50.892;5.740;2023-09-07T03:54:54;55961.09;;;-142.21;94.50
5053;BME280;2545;50.892;5.740;2023-09-07T03:57:20;55933.66;;;-142.21;94.78
5053;BME280;2545;50.892;5.740;2023-09-07T03:59:45;55921.91;;;-142.21;95.90
5053;BME280;2545;50.892;5.740;2023-09-07T04:02:11;55904.25;;;-142.21;96.93
5053;BME280;2545;50.892;5.740;2023-09-07T04:04:38;55957.19;;;-142.21;98.10
5053;BME280;2545;50.892;5.740;2023-09-07T04:07:04;55974.84;;;-142.21;97.64
5053;BME280;2545;50.892;5.740;2023-09-07T04:09:29;55949.34;;;-142.21;99.35
5053;BME280;2545;50.892;5.740;2023-09-07T04:11:54;55910.13;;;-142.21;100.00
5053;BME280;2545;50.892;5.740;2023-09-07T04:14:20;55933.66;;;-142.21;100.00
5053;BME280;2545;50.892;5.740;2023-09-07T04:16:45;55935.63;;;-142.21;100.00
5053;BME280;2545;50.892;5.740;2023-09-07T04:19:10;55929.75;;;-142.21;100.00
5053;BME280;2545;50.892;5.740;2023-09-07T04:21:36;55939.53;;;-142.21;99.20
5053;BME280;2545;50.892;5.740;2023-09-07T04:24:02;55963.06;;;-142.21;98.28
5053;BME280;2545;50.892;5.740;2023-09-07T04:26:27;55945.41;;;-142.21;98.75
5053;BME280;2545;50.892;5.740;2023-09-07T04:28:52;55955.22;;;-142.21;99.02
5053;BME280;2545;50.892;5.740;2023-09-07T04:31:18;55939.53;;;-142.21;99.86
5053;BME280;2545;50.892;5.740;2023-09-07T04:33:43;55935.63;;;-142.21;99.65
5053;BME280;2545;50.892;5.740;2023-09-07T04:36:14;55953.25;;;-142.21;98.69
5053;BME280;2545;50.892;5.740;2023-09-07T04:38:40;55955.22;;;-142.21;98.94
5053;BME280;2545;50.892;5.740;2023-09-07T04:41:12;55935.63;;;-142.21;98.03
5053;BME280;2545;50.892;5.740;2023-09-07T04:43:39;55933.66;;;-142.21;97.48
5053;BME280;2545;50.892;5.740;2023-09-07T04:46:12;55939.53;;;-142.21;96.60
5053;BME280;2545;50.892;5.740;2023-09-07T04:48:38;55976.78;;;-142.21;95.92
5053;BME280;2545;50.892;5.740;2023-09-07T04:51:05;55974.84;;;-142.21;94.30
5053;BME280;2545;50.892;5.740;2023-09-07T04:53:35;55955.22;;;-142.21;93.73
5053;BME280;2545;50.892;5.740;2023-09-07T04:56:04;55908.16;;;-142.21;92.89
5053;BME280;2545;50.892;5.740;2023-09-07T04:58:30;55929.75;;;-142.21;92.46
5053;BME280;2545;50.892;5.740;2023-09-07T05:01:02;55959.16;;;-142.21;92.00
5053;BME280;2545;50.892;5.740;2023-09-07T05:03:27;55959.16;;;-142.21;91.24
5053;BME280;2545;50.892;5.740;2023-09-07T05:05:53;55931.69;;;-142.21;91.46
5053;BME280;2545;50.892;5.740;2023-09-07T05:08:18;55935.63;;;-142.21;93.10
5053;BME280;2545;50.892;5.740;2023-09-07T05:10:44;55939.53;;;-142.21;93.75
5053;BME280;2545;50.892;5.740;2023-09-07T05:13:09;55929.75;;;-142.21;94.37
5053;BME280;2545;50.892;5.740;2023-09-07T05:15:34;55912.09;;;-142.21;94.86
5053;BME280;2545;50.892;5.740;2023-09-07T05:18:00;55939.53;;;-142.21;93.71
5053;BME280;2545;50.892;5.740;2023-09-07T05:20:25;55919.94;;;-142.21;93.37
5053;BME280;2545;50.892;5.740;2023-09-07T05:22:51;55961.09;;;-142.21;91.68
5053;BME280;2545;50.892;5.740;2023-09-07T05:25:16;55986.59;;;-142.21;91.66
5053;BME280;2545;50.892;5.740;2023-09-07T05:27:42;55972.88;;;-142.21;91.90
5053;BME280;2545;50.892;5.740;2023-09-07T05:30:07;55951.31;;;-142.21;91.59
5053;BME280;2545;50.892;5.740;2023-09-07T05:32:33;55927.78;;;-142.21;92.00
5053;BME280;2545;50.892;5.740;2023-09-07T05:34:58;55931.69;;;-142.21;92.29
5053;BME280;2545;50.892;5.740;2023-09-07T05:37:24;55982.69;;;-142.21;92.86
5053;BME280;2545;50.892;5.740;2023-09-07T05:39:49;55972.88;;;-142.21;93.44
5053;BME280;2545;50.892;5.740;2023-09-07T05:42:15;55943.47;;;-142.21;95.56
5053;BME280;2545;50.892;5.740;2023-09-07T05:44:40;55963.06;;;-142.21;97.83
5053;BME280;2545;50.892;5.740;2023-09-07T05:47:06;55919.94;;;-142.21;98.93
5053;BME280;2545;50.892;5.740;2023-09-07T05:49:31;55933.66;;;-142.21;98.67
5053;BME280;2545;50.892;5.740;2023-09-07T05:51:56;55949.34;;;-142.21;97.72
5053;BME280;2545;50.892;5.740;2023-09-07T05:54:22;55990.53;;;-142.21;97.92
5053;BME280;2545;50.892;5.740;2023-09-07T05:56:47;55955.22;;;-142.21;98.36
5053;BME280;2545;50.892;5.740;2023-09-07T05:59:13;55961.09;;;-142.21;99.10
5053;BME280;2545;50.892;5.740;2023-09-07T06:01:39;55927.78;;;-142.21;99.65
5053;BME280;2545;50.892;5.740;2023-09-07T06:04:05;55949.34;;;-142.21;99.32
5053;BME280;2545;50.892;5.740;2023-09-07T06:06:31;55953.25;;;-142.21;97.16
5053;BME280;2545;50.892;5.740;2023-09-07T06:08:56;55976.78;;;-142.21;95.36
5053;BME280;2545;50.892;5.740;2023-09-07T06:11:23;55980.72;;;-142.21;93.50
5053;BME280;2545;50.892;5.740;2023-09-07T06:13:49;55967.00;;;-142.21;92.50
5053;BME280;2545;50.892;5.740;2023-09-07T06:16:14;55921.91;;;-142.21;91.76
5053;BME280;2545;50.892;5.740;2023-09-07T06:18:39;55927.78;;;-142.21;91.52
5053;BME280;2545;50.892;5.740;2023-09-07T06:21:05;55968.94;;;-142.21;91.24
5053;BME280;2545;50.892;5.740;2023-09-07T06:23:31;55929.75;;;-142.21;90.90
5053;BME280;2545;50.892;5.740;2023-09-07T06:25:57;55951.31;;;-142.21;90.08
5053;BME280;2545;50.892;5.740;2023-09-07T06:28:22;55939.53;;;-142.21;90.87
5053;BME280;2545;50.892;5.740;2023-09-07T06:30:48;55990.53;;;-142.21;90.56
5053;BME280;2545;50.892;5.740;2023-09-07T06:33:13;55953.25;;;-142.21;89.42
5053;BME280;2545;50.892;5.740;2023-09-07T06:35:39;55951.31;;;-142.21;87.16
5053;BME280;2545;50.892;5.740;2023-09-07T06:38:04;55945.41;;;-142.21;86.49
5053;BME280;2545;50.892;5.740;2023-09-07T06:40:30;55951.31;;;-142.21;84.41
5053;BME280;2545;50.892;5.740;2023-09-07T06:42:55;55898.38;;;-142.21;82.58
5053;BME280;2545;50.892;5.740;2023-09-07T06:45:23;55900.31;;;-142.21;81.04
5053;BME280;2545;50.892;5.740;2023-09-07T06:47:51;55933.66;;;-142.21;79.19
5053;BME280;2545;50.892;5.740;2023-09-07T06:50:16;55931.69;;;-142.21;76.78
5053;BME280;2545;50.892;5.740;2023-09-07T06:52:42;55916.00;;;-142.21;76.13
5053;BME280;2545;50.892;5.740;2023-09-07T06:55:07;55939.53;;;-142.21;74.75
5053;BME280;2545;50.892;5.740;2023-09-07T06:57:32;55916.00;;;-142.21;74.11
5053;BME280;2545;50.892;5.740;2023-09-07T06:59:59;55912.09;;;-142.21;72.33
5053;BME280;2545;50.892;5.740;2023-09-07T07:02:24;55970.91;;;-142.21;71.60
5053;BME280;2545;50.892;5.740;2023-09-07T07:04:50;55888.56;;;-142.21;71.32
5053;BME280;2545;50.892;5.740;2023-09-07T07:07:16;55892.47;;;-142.21;71.01
5053;BME280;2545;50.892;5.740;2023-09-07T07:09:42;55912.09;;;-142.21;70.06
5053;BME280;2545;50.892;5.740;2023-09-07T07:12:07;55892.47;;;-142.21;70.09
5053;BME280;2545;50.892;5.740;2023-09-07T07:14:33;55900.31;;;-142.21;69.13
5053;BME280;2545;50.892;5.740;2023-09-07T07:16:58;55904.25;;;-142.21;69.46
5053;BME280;2545;50.892;5.740;2023-09-07T07:19:23;55923.84;;;-142.21;68.95
5053;BME280;2545;50.892;5.740;2023-09-07T07:21:49;55888.56;;;-142.21;68.73
5053;BME280;2545;50.892;5.740;2023-09-07T07:24:15;55882.69;;;-142.21;67.90
5053;BME280;2545;50.892;5.740;2023-09-07T07:26:41;55921.91;;;-142.21;67.98
5053;BME280;2545;50.892;5.740;2023-09-07T07:29:06;55912.09;;;-142.21;66.00
5053;BME280;2545;50.892;5.740;2023-09-07T07:31:31;55902.28;;;-142.21;65.89
5053;BME280;2545;50.892;5.740;2023-09-07T07:33:57;55892.47;;;-142.21;66.34
5053;BME280;2545;50.892;5.740;2023-09-07T07:36:25;55880.72;;;-142.21;66.39
5053;BME280;2545;50.892;5.740;2023-09-07T07:38:51;55927.78;;;-142.21;66.16
5053;BME280;2545;50.892;5.740;2023-09-07T07:41:16;55884.63;;;-142.21;66.02
5053;BME280;2545;50.892;5.740;2023-09-07T07:43:44;55888.56;;;-142.21;65.31
5053;BME280;2545;50.892;5.740;2023-09-07T07:46:10;55888.56;;;-142.21;65.02
5053;BME280;2545;50.892;5.740;2023-09-07T07:48:35;55916.00;;;-142.21;65.68
5053;BME280;2545;50.892;5.740;2023-09-07T07:51:04;55908.16;;;-142.21;65.31
5053;BME280;2545;50.892;5.740;2023-09-07T07:53:30;55894.44;;;-142.21;66.45
5053;BME280;2545;50.892;5.740;2023-09-07T07:55:56;55863.06;;;-142.21;66.37
5053;BME280;2545;50.892;5.740;2023-09-07T07:58:22;55876.78;;;-142.21;65.76
5053;BME280;2545;50.892;5.740;2023-09-07T08:00:47;55868.94;;;-142.21;63.44
5053;BME280;2545;50.892;5.740;2023-09-07T08:03:14;55878.75;;;-142.21;63.50
5053;BME280;2545;50.892;5.740;2023-09-07T08:05:40;55855.22;;;-142.21;62.75
5053;BME280;2545;50.892;5.740;2023-09-07T08:08:05;55880.72;;;-142.21;60.89
5053;BME280;2545;50.892;5.740;2023-09-07T08:10:37;55872.88;;;-142.21;60.59
5053;BME280;2545;50.892;5.740;2023-09-07T08:13:05;55865.03;;;-142.21;58.81
5053;BME280;2545;50.892;5.740;2023-09-07T08:15:34;55863.06;;;-142.21;59.07
5053;BME280;2545;50.892;5.740;2023-09-07T08:18:01;55898.38;;;-142.21;58.14
5053;BME280;2545;50.892;5.740;2023-09-07T08:20:31;55874.84;;;-142.21;57.49
5053;BME280;2545;50.892;5.740;2023-09-07T08:23:02;55870.91;;;-142.21;56.67
5053;BME280;2545;50.892;5.740;2023-09-07T08:25:28;55900.31;;;-142.21;58.40
5053;BME280;2545;50.892;5.740;2023-09-07T08:27:54;55880.72;;;-142.21;60.98
5053;BME280;2545;50.892;5.740;2023-09-07T08:30:22;55845.44;;;-142.21;61.11
5053;BME280;2545;50.892;5.740;2023-09-07T08:32:50;55867.00;;;-142.21;58.06
5053;BME280;2545;50.892;5.740;2023-09-07T08:35:17;55900.31;;;-142.21;56.81
5053;BME280;2545;50.892;5.740;2023-09-07T08:37:42;55833.66;;;-142.21;56.07
5053;BME280;2545;50.892;5.740;2023-09-07T08:40:08;55859.16;;;-142.21;56.65
5053;BME280;2545;50.892;5.740;2023-09-07T08:42:38;55853.28;;;-142.21;56.13
5053;BME280;2545;50.892;5.740;2023-09-07T08:45:04;55872.88;;;-142.21;55.21
5053;BME280;2545;50.892;5.740;2023-09-07T08:47:36;55837.59;;;-142.21;55.45
5053;BME280;2545;50.892;5.740;2023-09-07T08:50:04;55833.66;;;-142.21;54.10
5053;BME280;2545;50.892;5.740;2023-09-07T08:52:32;55861.09;;;-142.21;54.94
5053;BME280;2545;50.892;5.740;2023-09-07T08:55:00;55857.19;;;-142.21;53.93
5053;BME280;2545;50.892;5.740;2023-09-07T08:57:32;55808.16;;;-142.21;53.48
5053;BME280;2545;50.892;5.740;2023-09-07T08:59:58;55837.59;;;-142.21;53.18
5053;BME280;2545;50.892;5.740;2023-09-07T09:02:24;55814.06;;;-142.21;51.03
5053;BME280;2545;50.892;5.740;2023-09-07T09:04:50;55798.38;;;-142.21;50.95
5053;BME280;2545;50.892;5.740;2023-09-07T09:07:15;55798.38;;;-142.21;51.79
5053;BME280;2545;50.892;5.740;2023-09-07T09:09:46;55853.28;;;-142.21;52.34
5053;BME280;2545;50.892;5.740;2023-09-07T09:12:12;55794.44;;;-142.21;50.22
5053;BME280;2545;50.892;5.740;2023-09-07T09:14:44;55839.53;;;-142.21;50.76
5053;BME280;2545;50.892;5.740;2023-09-07T09:17:14;55796.41;;;-142.21;50.63
5053;BME280;2545;50.892;5.740;2023-09-07T09:19:40;55845.44;;;-142.21;49.92
5053;BME280;2545;50.892;5.740;2023-09-07T09:22:11;55833.66;;;-142.21;50.89
5053;BME280;2545;50.892;5.740;2023-09-07T09:24:36;55829.75;;;-142.21;49.60
5053;BME280;2545;50.892;5.740;2023-09-07T09:27:02;55778.75;;;-142.21;49.88
5053;BME280;2545;50.892;5.740;2023-09-07T09:29:29;55827.78;;;-142.21;49.31
5053;BME280;2545;50.892;5.740;2023-09-07T09:31:54;55782.69;;;-142.21;47.57
5053;BME280;2545;50.892;5.740;2023-09-07T09:34:22;55804.25;;;-142.21;46.89
5053;BME280;2545;50.892;5.740;2023-09-07T09:36:48;55825.81;;;-142.21;47.64
5053;BME280;2545;50.892;5.740;2023-09-07T09:39:24;55800.31;;;-142.21;47.52
5053;BME280;2545;50.892;5.740;2023-09-07T09:41:54;55802.28;;;-142.21;44.69
5053;BME280;2545;50.892;5.740;2023-09-07T09:44:21;55772.88;;;-142.21;46.93
5053;BME280;2545;50.892;5.740;2023-09-07T09:46:51;55788.56;;;-142.21;45.96
5053;BME280;2545;50.892;5.740;2023-09-07T09:49:20;55770.91;;;-142.21;44.67
5053;BME280;2545;50.892;5.740;2023-09-07T09:51:47;55802.28;;;-142.21;43.55
5053;BME280;2545;50.892;5.740;2023-09-07T09:54:13;55770.91;;;-142.21;43.35
5053;BME280;2545;50.892;5.740;2023-09-07T09:56:39;55794.44;;;-142.21;42.50
5053;BME280;2545;50.892;5.740;2023-09-07T09:59:04;55755.22;;;-142.21;40.88
5053;BME280;2545;50.892;5.740;2023-09-07T10:01:29;55751.31;;;-142.21;39.69
5053;BME280;2545;50.892;5.740;2023-09-07T10:03:57;55743.47;;;-142.21;37.78
5053;BME280;2545;50.892;5.740;2023-09-07T10:06:28;55739.53;;;-142.21;36.42
5053;BME280;2545;50.892;5.740;2023-09-07T10:09:03;55696.41;;;-142.21;36.03
5053;BME280;2545;50.892;5.740;2023-09-07T10:11:38;55680.72;;;-142.21;34.21
5053;BME280;2545;50.892;5.740;2023-09-07T10:14:05;55641.53;;;-142.21;33.41
5053;BME280;2545;50.892;5.740;2023-09-07T10:16:41;55618.00;;;-142.21;33.34
5053;BME280;2545;50.892;5.740;2023-09-07T10:19:15;55592.50;;;-142.21;32.57
5053;BME280;2545;50.892;5.740;2023-09-07T10:21:43;55621.91;;;-142.21;31.38
5053;BME280;2545;50.892;5.740;2023-09-07T10:24:09;55568.97;;;-142.21;30.41
5053;BME280;2545;50.892;5.740;2023-09-07T10:26:35;55572.91;;;-142.21;30.46
5053;BME280;2545;50.892;5.740;2023-09-07T10:29:01;55529.78;;;-142.21;29.51
5053;BME280;2545;50.892;5.740;2023-09-07T10:31:28;55527.81;;;-142.21;29.14
5053;BME280;2545;50.892;5.740;2023-09-07T10:33:55;55476.84;;;-142.21;28.87
5053;BME280;2545;50.892;5.740;2023-09-07T10:36:24;55457.22;;;-142.21;28.51
5053;BME280;2545;50.892;5.740;2023-09-07T10:38:51;55488.59;;;-142.21;28.09
5053;BME280;2545;50.892;5.740;2023-09-07T10:41:20;55492.53;;;-142.21;27.80
5053;BME280;2545;50.892;5.740;2023-09-07T10:43:50;55457.22;;;-142.21;27.58
5053;BME280;2545;50.892;5.740;2023-09-07T10:46:23;55474.88;;;-142.21;27.90
5053;BME280;2545;50.892;5.740;2023-09-07T10:48:53;55498.41;;;-142.21;27.12
5053;BME280;2545;50.892;5.740;2023-09-07T10:51:19;55502.31;;;-142.21;27.27
5053;BME280;2545;50.892;5.740;2023-09-07T10:53:45;55490.56;;;-142.21;27.53
5053;BME280;2545;50.892;5.740;2023-09-07T10:56:10;55514.09;;;-142.21;27.74
5053;BME280;2545;50.892;5.740;2023-09-07T10:58:37;55406.25;;;-142.21;27.26
5053;BME280;2545;50.892;5.740;2023-09-07T11:01:08;55455.28;;;-142.21;27.41
5053;BME280;2545;50.892;5.740;2023-09-07T11:03:37;55459.19;;;-142.21;26.84
5053;BME280;2545;50.892;5.740;2023-09-07T11:06:13;55474.88;;;-142.21;26.51
5053;BME280;2545;50.892;5.740;2023-09-07T11:08:44;55490.56;;;-142.21;26.46
5053;BME280;2545;50.892;5.740;2023-09-07T11:11:12;55418.03;;;-142.21;26.06
5053;BME280;2545;50.892;5.740;2023-09-07T11:13:41;55533.69;;;-142.21;26.54
5053;BME280;2545;50.892;5.740;2023-09-07T11:16:08;55451.34;;;-142.21;25.79
5053;BME280;2545;50.892;5.740;2023-09-07T11:18:34;55461.16;;;-142.21;25.82
5053;BME280;2545;50.892;5.740;2023-09-07T11:21:03;55392.53;;;-142.21;25.43
5053;BME280;2545;50.892;5.740;2023-09-07T11:23:31;55412.13;;;-142.21;25.75
5053;BME280;2545;50.892;5.740;2023-09-07T11:26:07;55429.78;;;-142.21;26.24
5053;BME280;2545;50.892;5.740;2023-09-07T11:28:33;55488.59;;;-142.21;25.58
5053;BME280;2545;50.892;5.740;2023-09-07T11:31:02;55421.94;;;-142.21;25.68
5053;BME280;2545;50.892;5.740;2023-09-07T11:33:31;55374.88;;;-142.21;25.62
5053;BME280;2545;50.892;5.740;2023-09-07T11:35:59;55508.19;;;-142.21;25.84
5053;BME280;2545;50.892;5.740;2023-09-07T11:38:29;55392.53;;;-142.21;25.87
5053;BME280;2545;50.892;5.740;2023-09-07T11:40:57;55355.28;;;-142.21;25.35
5053;BME280;2545;50.892;5.740;2023-09-07T11:43:22;55372.94;;;-142.21;25.41
5053;BME280;2545;50.892;5.740;2023-09-07T11:45:49;55404.28;;;-142.21;25.68
5053;BME280;2545;50.892;5.740;2023-09-07T11:48:17;55359.22;;;-142.21;24.79
5053;BME280;2545;50.892;5.740;2023-09-07T11:50:45;55388.63;;;-142.21;24.88
5053;BME280;2545;50.892;5.740;2023-09-07T11:53:12;55370.97;;;-142.21;25.16
5053;BME280;2545;50.892;5.740;2023-09-07T11:55:38;55363.13;;;-142.21;24.75
5053;BME280;2545;50.892;5.740;2023-09-07T11:58:04;55296.47;;;-142.21;24.56
5053;BME280;2545;50.892;5.740;2023-09-07T12:00:32;55355.28;;;-142.21;24.39
5053;BME280;2545;50.892;5.740;2023-09-07T12:02:58;55349.41;;;-142.21;24.72
5053;BME280;2545;50.892;5.740;2023-09-07T12:05:24;55398.41;;;-142.21;24.60
5053;BME280;2545;50.892;5.740;2023-09-07T12:07:52;55331.75;;;-142.21;25.33
5053;BME280;2545;50.892;5.740;2023-09-07T12:10:18;55272.94;;;-142.21;24.34
5053;BME280;2545;50.892;5.740;2023-09-07T12:12:46;55331.75;;;-142.21;23.93
5053;BME280;2545;50.892;5.740;2023-09-07T12:15:14;55306.28;;;-142.21;23.74
5053;BME280;2545;50.892;5.740;2023-09-07T12:17:42;55321.97;;;-142.21;24.05
5053;BME280;2545;50.892;5.740;2023-09-07T12:20:08;55263.16;;;-142.21;23.56
5053;BME280;2545;50.892;5.740;2023-09-07T12:22:38;55255.31;;;-142.21;24.11
5053;BME280;2545;50.892;5.740;2023-09-07T12:25:05;55382.72;;;-142.21;24.00
5053;BME280;2545;50.892;5.740;2023-09-07T12:27:36;55259.22;;;-142.21;23.55
5053;BME280;2545;50.892;5.740;2023-09-07T12:30:02;55272.94;;;-142.21;23.61
5053;BME280;2545;50.892;5.740;2023-09-07T12:32:31;55220.03;;;-142.21;23.68
5053;BME280;2545;50.892;5.740;2023-09-07T12:34:57;55241.59;;;-142.21;22.81
5053;BME280;2545;50.892;5.740;2023-09-07T12:37:24;55174.94;;;-142.21;23.13
5053;BME280;2545;50.892;5.740;2023-09-07T12:39:51;55223.94;;;-142.21;22.97
5053;BME280;2545;50.892;5.740;2023-09-07T12:42:17;55267.06;;;-142.21;23.61
5053;BME280;2545;50.892;5.740;2023-09-07T12:44:43;55261.19;;;-142.21;23.85
5053;BME280;2545;50.892;5.740;2023-09-07T12:47:08;55227.84;;;-142.21;23.29
5053;BME280;2545;50.892;5.740;2023-09-07T12:49:34;55227.84;;;-142.21;23.45
5053;BME280;2545;50.892;5.740;2023-09-07T12:52:00;55198.47;;;-142.21;23.26
5053;BME280;2545;50.892;5.740;2023-09-07T12:54:27;55206.28;;;-142.21;23.38
5053;BME280;2545;50.892;5.740;2023-09-07T12:56:53;55202.38;;;-142.21;23.31